sensor_id;sensor_type;location;lat;lon;timestamp;P1;durP1;ratioP1;P2;durP2;ratioP2
7169;SDS011;3626;42.656;23.312;2023-08-20T00:00:03;7.50;;;4.70;;
7169;SDS011;3626;42.656;23.312;2023-08-20T00:00:12;7.20;;;4.50;;
7169;SDS011;3626;42.656;23.312;2023-08-20T00:00:19;7.20;;;4.50;;
7169;SDS011;3626;42.656;23.312;2023-08-20T00:00:25;7.13;;;4.40;;
7169;SDS011;3626;42.656;23.312;2023-08-20T00:00:32;7.04;;;4.34;;
7169;SDS011;3626;42.656;23.312;2023-08-20T00:00:39;7.03;;;4.30;;
7169;SDS011;3626;42.656;23.312;2023-08-20T00:00:45;7.70;;;4.50;;
7169;SDS011;3626;42.656;23.312;2023-08-20T00:00:51;8.00;;;4.50;;
7169;SDS011;3626;42.656;23.312;2023-08-20T00:00:57;8.12;;;4.60;;
7169;SDS011;3626;42.656;23.312;2023-08-20T00:01:04;8.90;;;4.90;;
7169;SDS011;3626;42.656;23.312;2023-08-20T00:01:11;9.13;;;5.00;;
7169;SDS011;3626;42.656;23.312;2023-08-20T00:01:21;8.94;;;5.09;;
7169;SDS011;3626;42.656;23.312;2023-08-20T00:01:28;8.89;;;5.00;;
7169;SDS011;3626;42.656;23.312;2023-08-20T00:01:36;9.60;;;5.20;;
7169;SDS011;3626;42.656;23.312;2023-08-20T00:01:42;9.25;;;5.13;;
7169;SDS011;3626;42.656;23.312;2023-08-20T00:01:48;8.77;;;5.10;;
7169;SDS011;3626;42.656;23.312;2023-08-20T00:02:01;8.14;;;4.89;;
7169;SDS011;3626;42.656;23.312;2023-08-20T00:02:08;7.70;;;4.70;;
7169;SDS011;3626;42.656;23.312;2023-08-20T00:02:16;7.68;;;4.80;;
7169;SDS011;3626;42.656;23.312;2023-08-20T00:02:24;7.38;;;4.75;;
7169;SDS011;3626;42.656;23.312;2023-08-20T00:02:33;6.81;;;4.66;;
7169;SDS011;3626;42.656;23.312;2023-08-20T00:02:42;6.77;;;4.50;;
7169;SDS011;3626;42.656;23.312;2023-08-20T00:02:51;6.90;;;4.60;;
7169;SDS011;3626;42.656;23.312;2023-08-20T00:03:04;7.05;;;4.60;;
7169;SDS011;3626;42.656;23.312;2023-08-20T00:03:15;6.64;;;4.45;;
7169;SDS011;3626;42.656;23.312;2023-08-20T00:03:21;6.65;;;4.30;;
7169;SDS011;3626;42.656;23.312;2023-08-20T00:03:29;6.73;;;4.35;;
7169;SDS011;3626;42.656;23.312;2023-08-20T00:03:35;6.40;;;4.40;;
7169;SDS011;3626;42.656;23.312;2023-08-20T00:03:41;5.95;;;4.28;;
7169;SDS011;3626;42.656;23.312;2023-08-20T00:03:49;5.80;;;4.10;;
7169;SDS011;3626;42.656;23.312;2023-08-20T00:03:56;6.20;;;4.24;;
7169;SDS011;3626;42.656;23.312;2023-08-20T00:04:02;6.23;;;4.30;;
7169;SDS011;3626;42.656;23.312;2023-08-20T00:04:09;6.57;;;4.40;;
7169;SDS011;3626;42.656;23.312;2023-08-20T00:04:16;7.07;;;4.50;;
7169;SDS011;3626;42.656;23.312;2023-08-20T00:04:23;6.96;;;4.60;;
7169;SDS011;3626;42.656;23.312;2023-08-20T00:04:31;6.99;;;4.54;;
7169;SDS011;3626;42.656;23.312;2023-08-20T00:04:40;7.70;;;4.77;;
7169;SDS011;3626;42.656;23.312;2023-08-20T00:04:51;7.13;;;4.60;;
7169;SDS011;3626;42.656;23.312;2023-08-20T00:04:59;7.07;;;4.40;;
7169;SDS011;3626;42.656;23.312;2023-08-20T00:05:08;6.67;;;4.30;;
7169;SDS011;3626;42.656;23.312;2023-08-20T00:05:15;6.18;;;4.28;;
7169;SDS011;3626;42.656;23.312;2023-08-20T00:05:22;6.63;;;4.23;;
7169;SDS011;3626;42.656;23.312;2023-08-20T00:05:28;7.30;;;4.32;;
7169;SDS011;3626;42.656;23.312;2023-08-20T00:05:34;8.10;;;4.32;;
7169;SDS011;3626;42.656;23.312;2023-08-20T00:05:41;8.10;;;4.33;;
7169;SDS011;3626;42.656;23.312;2023-08-20T00:05:47;8.47;;;4.47;;
7169;SDS011;3626;42.656;23.312;2023-08-20T00:05:53;9.30;;;4.67;;
7169;SDS011;3626;42.656;23.312;2023-08-20T00:05:59;9.43;;;4.80;;
7169;SDS011;3626;42.656;23.312;2023-08-20T00:06:06;9.65;;;4.90;;
7169;SDS011;3626;42.656;23.312;2023-08-20T00:06:12;9.70;;;4.82;;
7169;SDS011;3626;42.656;23.312;2023-08-20T00:06:18;10.02;;;4.80;;
7169;SDS011;3626;42.656;23.312;2023-08-20T00:06:25;9.50;;;4.80;;
7169;SDS011;3626;42.656;23.312;2023-08-20T00:06:31;8.20;;;4.78;;
7169;SDS011;3626;42.656;23.312;2023-08-20T00:06:37;7.73;;;4.77;;
7169;SDS011;3626;42.656;23.312;2023-08-20T00:06:44;7.60;;;4.70;;
7169;SDS011;3626;42.656;23.312;2023-08-20T00:06:51;7.20;;;4.66;;
7169;SDS011;3626;42.656;23.312;2023-08-20T00:06:57;7.08;;;4.60;;
7169;SDS011;3626;42.656;23.312;2023-08-20T00:07:04;7.88;;;4.53;;
7169;SDS011;3626;42.656;23.312;2023-08-20T00:07:11;9.66;;;4.60;;
7169;SDS011;3626;42.656;23.312;2023-08-20T00:07:17;9.43;;;4.70;;
7169;SDS011;3626;42.656;23.312;2023-08-20T00:07:24;9.53;;;4.70;;
7169;SDS011;3626;42.656;23.312;2023-08-20T00:07:30;9.93;;;4.88;;
7169;SDS011;3626;42.656;23.312;2023-08-20T00:07:36;9.93;;;4.80;;
7169;SDS011;3626;42.656;23.312;2023-08-20T00:07:43;10.90;;;4.80;;
7169;SDS011;3626;42.656;23.312;2023-08-20T00:07:49;10.60;;;4.70;;
7169;SDS011;3626;42.656;23.312;2023-08-20T00:07:55;10.60;;;4.70;;
7169;SDS011;3626;42.656;23.312;2023-08-20T00:08:01;10.90;;;4.80;;
7169;SDS011;3626;42.656;23.312;2023-08-20T00:08:07;8.57;;;4.80;;
7169;SDS011;3626;42.656;23.312;2023-08-20T00:08:13;8.32;;;4.75;;
7169;SDS011;3626;42.656;23.312;2023-08-20T00:08:18;8.13;;;4.68;;
7169;SDS011;3626;42.656;23.312;2023-08-20T00:08:24;8.00;;;4.60;;
7169;SDS011;3626;42.656;23.312;2023-08-20T00:08:30;7.70;;;4.47;;
7169;SDS011;3626;42.656;23.312;2023-08-20T00:08:35;7.90;;;4.67;;
7169;SDS011;3626;42.656;23.312;2023-08-20T00:08:41;7.13;;;4.68;;
7169;SDS011;3626;42.656;23.312;2023-08-20T00:08:47;7.32;;;4.78;;
7169;SDS011;3626;42.656;23.312;2023-08-20T00:08:53;7.75;;;4.88;;
7169;SDS011;3626;42.656;23.312;2023-08-20T00:08:59;7.50;;;4.90;;
7169;SDS011;3626;42.656;23.312;2023-08-20T00:09:05;7.10;;;4.80;;
7169;SDS011;3626;42.656;23.312;2023-08-20T00:09:11;7.10;;;4.80;;
7169;SDS011;3626;42.656;23.312;2023-08-20T00:09:17;8.65;;;4.80;;
7169;SDS011;3626;42.656;23.312;2023-08-20T00:09:23;12.00;;;4.80;;
7169;SDS011;3626;42.656;23.312;2023-08-20T00:09:29;12.37;;;4.93;;
7169;SDS011;3626;42.656;23.312;2023-08-20T00:09:35;12.30;;;4.83;;
7169;SDS011;3626;42.656;23.312;2023-08-20T00:09:41;12.07;;;4.72;;
7169;SDS011;3626;42.656;23.312;2023-08-20T00:09:47;12.35;;;4.68;;
7169;SDS011;3626;42.656;23.312;2023-08-20T00:09:52;14.03;;;4.77;;
7169;SDS011;3626;42.656;23.312;2023-08-20T00:09:58;13.73;;;4.70;;
7169;SDS011;3626;42.656;23.312;2023-08-20T00:10:04;13.82;;;4.80;;
7169;SDS011;3626;42.656;23.312;2023-08-20T00:10:11;14.04;;;4.90;;
7169;SDS011;3626;42.656;23.312;2023-08-20T00:10:16;12.93;;;5.00;;
7169;SDS011;3626;42.656;23.312;2023-08-20T00:10:22;9.70;;;5.00;;
7169;SDS011;3626;42.656;23.312;2023-08-20T00:10:28;9.70;;;5.05;;
7169;SDS011;3626;42.656;23.312;2023-08-20T00:10:35;9.36;;;4.92;;
7169;SDS011;3626;42.656;23.312;2023-08-20T00:10:41;9.47;;;5.00;;
7169;SDS011;3626;42.656;23.312;2023-08-20T00:10:46;9.32;;;4.97;;
7169;SDS011;3626;42.656;23.312;2023-08-20T00:10:52;7.22;;;4.88;;
7169;SDS011;3626;42.656;23.312;2023-08-20T00:10:57;7.20;;;4.90;;
7169;SDS011;3626;42.656;23.312;2023-08-20T00:11:03;7.43;;;4.90;;
7169;SDS011;3626;42.656;23.312;2023-08-20T00:11:11;7.67;;;4.83;;
7169;SDS011;3626;42.656;23.312;2023-08-20T00:11:17;7.55;;;4.80;;
7169;SDS011;3626;42.656;23.312;2023-08-20T00:11:22;7.38;;;4.70;;
7169;SDS011;3626;42.656;23.312;2023-08-20T00:11:28;7.10;;;4.60;;
7169;SDS011;3626;42.656;23.312;2023-08-20T00:11:34;6.90;;;4.57;;
7169;SDS011;3626;42.656;23.312;2023-08-20T00:11:40;6.80;;;4.50;;
7169;SDS011;3626;42.656;23.312;2023-08-20T00:11:45;6.63;;;4.50;;
7169;SDS011;3626;42.656;23.312;2023-08-20T00:11:51;6.80;;;4.50;;
7169;SDS011;3626;42.656;23.312;2023-08-20T00:11:57;6.75;;;4.47;;
7169;SDS011;3626;42.656;23.312;2023-08-20T00:12:03;6.73;;;4.50;;
7169;SDS011;3626;42.656;23.312;2023-08-20T00:12:10;6.25;;;4.37;;
7169;SDS011;3626;42.656;23.312;2023-08-20T00:12:16;6.50;;;4.40;;
7169;SDS011;3626;42.656;23.312;2023-08-20T00:12:21;6.97;;;4.57;;
7169;SDS011;3626;42.656;23.312;2023-08-20T00:12:28;7.52;;;4.78;;
7169;SDS011;3626;42.656;23.312;2023-08-20T00:12:34;8.32;;;5.05;;
7169;SDS011;3626;42.656;23.312;2023-08-20T00:12:39;8.50;;;5.10;;
7169;SDS011;3626;42.656;23.312;2023-08-20T00:12:45;8.60;;;5.18;;
7169;SDS011;3626;42.656;23.312;2023-08-20T00:12:51;8.25;;;5.15;;
7169;SDS011;3626;42.656;23.312;2023-08-20T00:12:57;8.37;;;5.20;;
7169;SDS011;3626;42.656;23.312;2023-08-20T00:13:03;8.13;;;5.03;;
7169;SDS011;3626;42.656;23.312;2023-08-20T00:13:10;8.38;;;5.10;;
7169;SDS011;3626;42.656;23.312;2023-08-20T00:13:16;8.10;;;5.10;;
7169;SDS011;3626;42.656;23.312;2023-08-20T00:13:21;8.00;;;5.00;;
7169;SDS011;3626;42.656;23.312;2023-08-20T00:13:27;7.95;;;4.95;;
7169;SDS011;3626;42.656;23.312;2023-08-20T00:13:33;8.30;;;4.90;;
7169;SDS011;3626;42.656;23.312;2023-08-20T00:13:39;8.30;;;4.87;;
7169;SDS011;3626;42.656;23.312;2023-08-20T00:13:44;8.52;;;5.00;;
7169;SDS011;3626;42.656;23.312;2023-08-20T00:13:51;8.57;;;5.00;;
7169;SDS011;3626;42.656;23.312;2023-08-20T00:13:57;8.33;;;4.90;;
7169;SDS011;3626;42.656;23.312;2023-08-20T00:14:02;8.30;;;4.90;;
7169;SDS011;3626;42.656;23.312;2023-08-20T00:14:14;8.60;;;4.90;;
7169;SDS011;3626;42.656;23.312;2023-08-20T00:14:21;8.74;;;4.90;;
7169;SDS011;3626;42.656;23.312;2023-08-20T00:15:09;9.06;;;4.95;;
7169;SDS011;3626;42.656;23.312;2023-08-20T00:15:15;9.52;;;5.00;;
7169;SDS011;3626;42.656;23.312;2023-08-20T00:15:21;9.93;;;5.10;;
7169;SDS011;3626;42.656;23.312;2023-08-20T00:15:31;9.81;;;5.04;;
7169;SDS011;3626;42.656;23.312;2023-08-20T00:15:37;9.73;;;4.90;;
7169;SDS011;3626;42.656;23.312;2023-08-20T00:15:44;9.78;;;4.80;;
7169;SDS011;3626;42.656;23.312;2023-08-20T00:15:50;9.68;;;4.70;;
7169;SDS011;3626;42.656;23.312;2023-08-20T00:15:56;9.30;;;4.80;;
7169;SDS011;3626;42.656;23.312;2023-08-20T00:16:03;8.83;;;4.83;;
7169;SDS011;3626;42.656;23.312;2023-08-20T00:16:09;7.88;;;5.00;;
7169;SDS011;3626;42.656;23.312;2023-08-20T00:16:15;8.50;;;5.10;;
7169;SDS011;3626;42.656;23.312;2023-08-20T00:16:22;8.57;;;5.17;;
7169;SDS011;3626;42.656;23.312;2023-08-20T00:16:28;8.50;;;5.10;;
7169;SDS011;3626;42.656;23.312;2023-08-20T00:16:34;9.37;;;5.20;;
7169;SDS011;3626;42.656;23.312;2023-08-20T00:16:40;9.13;;;5.10;;
7169;SDS011;3626;42.656;23.312;2023-08-20T00:16:46;9.15;;;5.20;;
7169;SDS011;3626;42.656;23.312;2023-08-20T00:16:53;9.16;;;5.20;;
7169;SDS011;3626;42.656;23.312;2023-08-20T00:16:59;9.05;;;5.18;;
7169;SDS011;3626;42.656;23.312;2023-08-20T00:17:05;9.02;;;5.10;;
7169;SDS011;3626;42.656;23.312;2023-08-20T00:17:12;8.92;;;4.92;;
7169;SDS011;3626;42.656;23.312;2023-08-20T00:17:18;8.33;;;4.80;;
7169;SDS011;3626;42.656;23.312;2023-08-20T00:17:25;8.10;;;4.77;;
7169;SDS011;3626;42.656;23.312;2023-08-20T00:17:32;9.07;;;4.90;;
7169;SDS011;3626;42.656;23.312;2023-08-20T00:17:39;8.40;;;5.00;;
7169;SDS011;3626;42.656;23.312;2023-08-20T00:17:45;8.22;;;5.00;;
7169;SDS011;3626;42.656;23.312;2023-08-20T00:17:52;8.40;;;5.00;;
7169;SDS011;3626;42.656;23.312;2023-08-20T00:17:58;8.47;;;5.03;;
7169;SDS011;3626;42.656;23.312;2023-08-20T00:18:04;9.07;;;5.13;;
7169;SDS011;3626;42.656;23.312;2023-08-20T00:18:10;9.00;;;5.30;;
7169;SDS011;3626;42.656;23.312;2023-08-20T00:18:17;9.16;;;5.38;;
7169;SDS011;3626;42.656;23.312;2023-08-20T00:18:23;9.10;;;5.33;;
7169;SDS011;3626;42.656;23.312;2023-08-20T00:18:30;8.15;;;5.20;;
7169;SDS011;3626;42.656;23.312;2023-08-20T00:18:37;8.06;;;5.16;;
7169;SDS011;3626;42.656;23.312;2023-08-20T00:18:43;8.04;;;5.14;;
7169;SDS011;3626;42.656;23.312;2023-08-20T00:18:50;7.86;;;5.08;;
7169;SDS011;3626;42.656;23.312;2023-08-20T00:18:56;7.90;;;5.20;;
7169;SDS011;3626;42.656;23.312;2023-08-20T00:19:03;7.30;;;5.02;;
7169;SDS011;3626;42.656;23.312;2023-08-20T00:19:09;7.53;;;5.00;;
7169;SDS011;3626;42.656;23.312;2023-08-20T00:19:16;8.87;;;4.97;;
7169;SDS011;3626;42.656;23.312;2023-08-20T00:19:22;8.85;;;5.00;;
7169;SDS011;3626;42.656;23.312;2023-08-20T00:19:28;8.87;;;5.00;;
7169;SDS011;3626;42.656;23.312;2023-08-20T00:19:34;9.10;;;5.07;;
7169;SDS011;3626;42.656;23.312;2023-08-20T00:19:40;9.43;;;5.03;;
7169;SDS011;3626;42.656;23.312;2023-08-20T00:19:47;10.00;;;5.15;;
7169;SDS011;3626;42.656;23.312;2023-08-20T00:19:54;9.88;;;5.12;;
7169;SDS011;3626;42.656;23.312;2023-08-20T00:20:00;9.48;;;5.05;;
7169;SDS011;3626;42.656;23.312;2023-08-20T00:20:10;9.07;;;5.10;;
7169;SDS011;3626;42.656;23.312;2023-08-20T00:20:17;7.63;;;5.02;;
7169;SDS011;3626;42.656;23.312;2023-08-20T00:20:24;7.75;;;5.10;;
7169;SDS011;3626;42.656;23.312;2023-08-20T00:20:30;8.10;;;5.20;;
7169;SDS011;3626;42.656;23.312;2023-08-20T00:20:36;7.95;;;5.22;;
7169;SDS011;3626;42.656;23.312;2023-08-20T00:20:42;7.70;;;5.15;;
7169;SDS011;3626;42.656;23.312;2023-08-20T00:20:50;7.50;;;5.20;;
7169;SDS011;3626;42.656;23.312;2023-08-20T00:20:58;7.68;;;5.10;;
7169;SDS011;3626;42.656;23.312;2023-08-20T00:21:04;7.88;;;5.10;;
7169;SDS011;3626;42.656;23.312;2023-08-20T00:21:11;7.84;;;5.10;;
7169;SDS011;3626;42.656;23.312;2023-08-20T00:21:19;7.82;;;5.10;;
7169;SDS011;3626;42.656;23.312;2023-08-20T00:21:25;7.70;;;5.10;;
7169;SDS011;3626;42.656;23.312;2023-08-20T00:21:33;7.43;;;4.88;;
7169;SDS011;3626;42.656;23.312;2023-08-20T00:21:39;7.50;;;4.70;;
7169;SDS011;3626;42.656;23.312;2023-08-20T00:21:46;7.40;;;4.77;;
7169;SDS011;3626;42.656;23.312;2023-08-20T00:21:52;7.63;;;4.80;;
7169;SDS011;3626;42.656;23.312;2023-08-20T00:21:58;7.50;;;4.80;;
7169;SDS011;3626;42.656;23.312;2023-08-20T00:22:04;7.80;;;4.80;;
7169;SDS011;3626;42.656;23.312;2023-08-20T00:22:10;7.93;;;4.63;;
7169;SDS011;3626;42.656;23.312;2023-08-20T00:22:15;8.52;;;4.57;;
7169;SDS011;3626;42.656;23.312;2023-08-20T00:22:22;9.65;;;4.70;;
7169;SDS011;3626;42.656;23.312;2023-08-20T00:22:29;9.94;;;4.80;;
7169;SDS011;3626;42.656;23.312;2023-08-20T00:22:35;9.96;;;4.94;;
7169;SDS011;3626;42.656;23.312;2023-08-20T00:22:42;9.40;;;4.87;;
7169;SDS011;3626;42.656;23.312;2023-08-20T00:22:50;9.37;;;4.89;;
7169;SDS011;3626;42.656;23.312;2023-08-20T00:22:56;9.50;;;5.00;;
7169;SDS011;3626;42.656;23.312;2023-08-20T00:23:02;9.43;;;5.07;;
7169;SDS011;3626;42.656;23.312;2023-08-20T00:23:09;9.10;;;5.20;;
7169;SDS011;3626;42.656;23.312;2023-08-20T00:23:15;8.60;;;5.20;;
7169;SDS011;3626;42.656;23.312;2023-08-20T00:23:21;7.25;;;5.05;;
7169;SDS011;3626;42.656;23.312;2023-08-20T00:23:28;7.05;;;5.03;;
7169;SDS011;3626;42.656;23.312;2023-08-20T00:23:34;7.05;;;5.00;;
7169;SDS011;3626;42.656;23.312;2023-08-20T00:23:40;7.03;;;5.00;;
7169;SDS011;3626;42.656;23.312;2023-08-20T00:23:46;7.15;;;5.10;;
7169;SDS011;3626;42.656;23.312;2023-08-20T00:23:53;6.83;;;5.00;;
7169;SDS011;3626;42.656;23.312;2023-08-20T00:23:59;6.80;;;5.00;;
7169;SDS011;3626;42.656;23.312;2023-08-20T00:24:05;6.77;;;4.90;;
7169;SDS011;3626;42.656;23.312;2023-08-20T00:24:13;7.17;;;4.90;;
7169;SDS011;3626;42.656;23.312;2023-08-20T00:24:19;7.45;;;5.00;;
7169;SDS011;3626;42.656;23.312;2023-08-20T00:24:26;7.50;;;5.00;;
7169;SDS011;3626;42.656;23.312;2023-08-20T00:24:32;7.50;;;4.98;;
7169;SDS011;3626;42.656;23.312;2023-08-20T00:24:39;7.80;;;5.13;;
7169;SDS011;3626;42.656;23.312;2023-08-20T00:24:45;7.97;;;5.20;;
7169;SDS011;3626;42.656;23.312;2023-08-20T00:24:51;8.07;;;5.25;;
7169;SDS011;3626;42.656;23.312;2023-08-20T00:24:58;8.94;;;5.30;;
7169;SDS011;3626;42.656;23.312;2023-08-20T00:25:04;8.90;;;5.30;;
7169;SDS011;3626;42.656;23.312;2023-08-20T00:25:11;8.47;;;5.40;;
7169;SDS011;3626;42.656;23.312;2023-08-20T00:25:18;8.18;;;5.30;;
7169;SDS011;3626;42.656;23.312;2023-08-20T00:25:24;8.10;;;5.30;;
7169;SDS011;3626;42.656;23.312;2023-08-20T00:25:30;9.60;;;5.40;;
7169;SDS011;3626;42.656;23.312;2023-08-20T00:25:37;9.47;;;5.40;;
7169;SDS011;3626;42.656;23.312;2023-08-20T00:25:43;9.03;;;5.23;;
7169;SDS011;3626;42.656;23.312;2023-08-20T00:25:50;8.85;;;5.08;;
7169;SDS011;3626;42.656;23.312;2023-08-20T00:25:57;8.15;;;5.07;;
7169;SDS011;3626;42.656;23.312;2023-08-20T00:26:03;8.20;;;5.10;;
7169;SDS011;3626;42.656;23.312;2023-08-20T00:26:09;8.23;;;5.10;;
7169;SDS011;3626;42.656;23.312;2023-08-20T00:26:16;8.43;;;5.17;;
7169;SDS011;3626;42.656;23.312;2023-08-20T00:26:22;8.40;;;5.20;;
7169;SDS011;3626;42.656;23.312;2023-08-20T00:26:28;7.50;;;5.05;;
7169;SDS011;3626;42.656;23.312;2023-08-20T00:26:34;7.67;;;4.90;;
7169;SDS011;3626;42.656;23.312;2023-08-20T00:26:40;8.52;;;5.04;;
7169;SDS011;3626;42.656;23.312;2023-08-20T00:26:47;8.68;;;5.13;;
7169;SDS011;3626;42.656;23.312;2023-08-20T00:26:53;8.43;;;5.10;;
7169;SDS011;3626;42.656;23.312;2023-08-20T00:26:58;10.10;;;5.17;;
7169;SDS011;3626;42.656;23.312;2023-08-20T00:27:04;10.95;;;5.20;;
7169;SDS011;3626;42.656;23.312;2023-08-20T00:27:10;11.38;;;5.22;;
7169;SDS011;3626;42.656;23.312;2023-08-20T00:27:15;11.60;;;5.27;;
7169;SDS011;3626;42.656;23.312;2023-08-20T00:27:21;12.20;;;5.20;;
7169;SDS011;3626;42.656;23.312;2023-08-20T00:27:27;12.82;;;5.22;;
7169;SDS011;3626;42.656;23.312;2023-08-20T00:27:32;12.77;;;5.20;;
7169;SDS011;3626;42.656;23.312;2023-08-20T00:27:38;11.53;;;5.03;;
7169;SDS011;3626;42.656;23.312;2023-08-20T00:27:45;11.46;;;5.00;;
7169;SDS011;3626;42.656;23.312;2023-08-20T00:27:51;11.52;;;4.82;;
7169;SDS011;3626;42.656;23.312;2023-08-20T00:27:56;11.20;;;4.73;;
7169;SDS011;3626;42.656;23.312;2023-08-20T00:28:02;10.10;;;4.70;;
7169;SDS011;3626;42.656;23.312;2023-08-20T00:28:08;10.02;;;4.80;;
7169;SDS011;3626;42.656;23.312;2023-08-20T00:28:15;10.02;;;4.80;;
7169;SDS011;3626;42.656;23.312;2023-08-20T00:28:21;9.50;;;4.70;;
7169;SDS011;3626;42.656;23.312;2023-08-20T00:28:26;9.50;;;4.70;;
7169;SDS011;3626;42.656;23.312;2023-08-20T00:28:32;9.35;;;4.70;;
7169;SDS011;3626;42.656;23.312;2023-08-20T00:28:39;9.67;;;4.67;;
7169;SDS011;3626;42.656;23.312;2023-08-20T00:28:44;9.87;;;4.80;;
7169;SDS011;3626;42.656;23.312;2023-08-20T00:28:50;9.70;;;4.85;;
7169;SDS011;3626;42.656;23.312;2023-08-20T00:28:56;10.02;;;4.90;;
7169;SDS011;3626;42.656;23.312;2023-08-20T00:29:02;8.90;;;4.80;;
7169;SDS011;3626;42.656;23.312;2023-08-20T00:29:08;8.70;;;4.72;;
7169;SDS011;3626;42.656;23.312;2023-08-20T00:29:14;8.80;;;4.80;;
7169;SDS011;3626;42.656;23.312;2023-08-20T00:29:19;8.60;;;4.90;;
7169;SDS011;3626;42.656;23.312;2023-08-20T00:29:25;8.13;;;4.95;;
7169;SDS011;3626;42.656;23.312;2023-08-20T00:29:31;7.80;;;5.03;;
7169;SDS011;3626;42.656;23.312;2023-08-20T00:29:36;7.53;;;5.17;;
7169;SDS011;3626;42.656;23.312;2023-08-20T00:29:42;7.35;;;5.20;;
7169;SDS011;3626;42.656;23.312;2023-08-20T00:29:47;7.57;;;5.20;;
7169;SDS011;3626;42.656;23.312;2023-08-20T00:29:53;7.53;;;5.25;;
7169;SDS011;3626;42.656;23.312;2023-08-20T00:29:59;7.25;;;5.20;;
7169;SDS011;3626;42.656;23.312;2023-08-20T00:30:05;7.30;;;5.13;;
7169;SDS011;3626;42.656;23.312;2023-08-20T00:30:11;6.87;;;5.00;;
7169;SDS011;3626;42.656;23.312;2023-08-20T00:30:17;6.70;;;4.90;;
7169;SDS011;3626;42.656;23.312;2023-08-20T00:30:23;6.85;;;4.90;;
7169;SDS011;3626;42.656;23.312;2023-08-20T00:30:29;6.90;;;4.83;;
7169;SDS011;3626;42.656;23.312;2023-08-20T00:30:34;7.57;;;4.97;;
7169;SDS011;3626;42.656;23.312;2023-08-20T00:30:40;8.18;;;4.88;;
7169;SDS011;3626;42.656;23.312;2023-08-20T00:30:47;8.67;;;5.00;;
7169;SDS011;3626;42.656;23.312;2023-08-20T00:30:54;8.74;;;5.00;;
7169;SDS011;3626;42.656;23.312;2023-08-20T00:30:59;8.83;;;5.10;;
7169;SDS011;3626;42.656;23.312;2023-08-20T00:31:06;8.88;;;5.10;;
7169;SDS011;3626;42.656;23.312;2023-08-20T00:31:11;8.85;;;5.15;;
7169;SDS011;3626;42.656;23.312;2023-08-20T00:31:17;8.77;;;5.20;;
7169;SDS011;3626;42.656;23.312;2023-08-20T00:31:22;8.73;;;5.20;;
7169;SDS011;3626;42.656;23.312;2023-08-20T00:31:28;8.60;;;5.20;;
7169;SDS011;3626;42.656;23.312;2023-08-20T00:31:34;7.90;;;5.10;;
7169;SDS011;3626;42.656;23.312;2023-08-20T00:31:39;7.13;;;5.10;;
7169;SDS011;3626;42.656;23.312;2023-08-20T00:31:45;6.70;;;4.97;;
7169;SDS011;3626;42.656;23.312;2023-08-20T00:31:51;6.27;;;4.80;;
7169;SDS011;3626;42.656;23.312;2023-08-20T00:31:56;6.28;;;4.85;;
7169;SDS011;3626;42.656;23.312;2023-08-20T00:32:02;6.43;;;5.00;;
7169;SDS011;3626;42.656;23.312;2023-08-20T00:32:08;6.40;;;5.00;;
7169;SDS011;3626;42.656;23.312;2023-08-20T00:32:14;6.47;;;5.07;;
7169;SDS011;3626;42.656;23.312;2023-08-20T00:32:20;7.00;;;5.23;;
7169;SDS011;3626;42.656;23.312;2023-08-20T00:32:26;7.37;;;5.40;;
7169;SDS011;3626;42.656;23.312;2023-08-20T00:32:31;7.50;;;5.40;;
7169;SDS011;3626;42.656;23.312;2023-08-20T00:32:37;7.53;;;5.40;;
7169;SDS011;3626;42.656;23.312;2023-08-20T00:32:43;7.55;;;5.50;;
7169;SDS011;3626;42.656;23.312;2023-08-20T00:32:49;8.00;;;5.53;;
7169;SDS011;3626;42.656;23.312;2023-08-20T00:32:56;8.37;;;5.60;;
7169;SDS011;3626;42.656;23.312;2023-08-20T00:33:01;8.20;;;5.50;;
7169;SDS011;3626;42.656;23.312;2023-08-20T00:33:07;8.23;;;5.55;;
7169;SDS011;3626;42.656;23.312;2023-08-20T00:33:13;8.57;;;5.60;;
7169;SDS011;3626;42.656;23.312;2023-08-20T00:33:19;8.43;;;5.43;;
7169;SDS011;3626;42.656;23.312;2023-08-20T00:33:24;8.15;;;5.32;;
7169;SDS011;3626;42.656;23.312;2023-08-20T00:33:30;8.25;;;5.30;;
7169;SDS011;3626;42.656;23.312;2023-08-20T00:33:36;8.70;;;5.30;;
7169;SDS011;3626;42.656;23.312;2023-08-20T00:33:42;8.90;;;5.30;;
7169;SDS011;3626;42.656;23.312;2023-08-20T00:33:48;9.13;;;5.43;;
7169;SDS011;3626;42.656;23.312;2023-08-20T00:33:54;9.30;;;5.50;;
7169;SDS011;3626;42.656;23.312;2023-08-20T00:33:59;9.15;;;5.47;;
7169;SDS011;3626;42.656;23.312;2023-08-20T00:34:05;9.30;;;5.60;;
7169;SDS011;3626;42.656;23.312;2023-08-20T00:34:10;9.18;;;5.55;;
7169;SDS011;3626;42.656;23.312;2023-08-20T00:34:16;9.87;;;5.57;;
7169;SDS011;3626;42.656;23.312;2023-08-20T00:34:22;9.93;;;5.60;;
7169;SDS011;3626;42.656;23.312;2023-08-20T00:34:27;12.93;;;5.70;;
7169;SDS011;3626;42.656;23.312;2023-08-20T00:34:33;13.47;;;5.80;;
7169;SDS011;3626;42.656;23.312;2023-08-20T00:34:39;13.40;;;5.70;;
7169;SDS011;3626;42.656;23.312;2023-08-20T00:34:46;13.05;;;5.60;;
7169;SDS011;3626;42.656;23.312;2023-08-20T00:34:52;12.65;;;5.50;;
7169;SDS011;3626;42.656;23.312;2023-08-20T00:34:57;12.98;;;5.57;;
7169;SDS011;3626;42.656;23.312;2023-08-20T00:35:03;13.20;;;5.57;;
7169;SDS011;3626;42.656;23.312;2023-08-20T00:35:10;13.56;;;5.50;;
7169;SDS011;3626;42.656;23.312;2023-08-20T00:35:15;12.63;;;5.50;;
7169;SDS011;3626;42.656;23.312;2023-08-20T00:35:21;12.83;;;5.40;;
7169;SDS011;3626;42.656;23.312;2023-08-20T00:35:27;10.50;;;5.30;;
7169;SDS011;3626;42.656;23.312;2023-08-20T00:35:33;10.25;;;5.18;;
7169;SDS011;3626;42.656;23.312;2023-08-20T00:35:38;10.02;;;5.20;;
7169;SDS011;3626;42.656;23.312;2023-08-20T00:35:44;9.87;;;5.23;;
7169;SDS011;3626;42.656;23.312;2023-08-20T00:35:50;9.98;;;5.25;;
7169;SDS011;3626;42.656;23.312;2023-08-20T00:35:56;10.07;;;5.28;;
7169;SDS011;3626;42.656;23.312;2023-08-20T00:36:01;9.83;;;5.20;;
7169;SDS011;3626;42.656;23.312;2023-08-20T00:36:07;9.60;;;5.20;;
7169;SDS011;3626;42.656;23.312;2023-08-20T00:36:13;9.57;;;5.20;;
7169;SDS011;3626;42.656;23.312;2023-08-20T00:36:19;9.40;;;5.10;;
7169;SDS011;3626;42.656;23.312;2023-08-20T00:36:24;8.65;;;5.15;;
7169;SDS011;3626;42.656;23.312;2023-08-20T00:36:30;8.03;;;5.10;;
7169;SDS011;3626;42.656;23.312;2023-08-20T00:36:37;7.66;;;5.16;;
7169;SDS011;3626;42.656;23.312;2023-08-20T00:36:42;7.50;;;5.13;;
7169;SDS011;3626;42.656;23.312;2023-08-20T00:36:48;7.60;;;5.20;;
7169;SDS011;3626;42.656;23.312;2023-08-20T00:36:54;7.55;;;5.20;;
7169;SDS011;3626;42.656;23.312;2023-08-20T00:37:00;7.38;;;5.20;;
7169;SDS011;3626;42.656;23.312;2023-08-20T00:37:06;6.93;;;5.20;;
7169;SDS011;3626;42.656;23.312;2023-08-20T00:37:11;7.00;;;5.20;;
7169;SDS011;3626;42.656;23.312;2023-08-20T00:37:17;7.67;;;5.30;;
7169;SDS011;3626;42.656;23.312;2023-08-20T00:37:23;7.78;;;5.38;;
7169;SDS011;3626;42.656;23.312;2023-08-20T00:37:28;7.60;;;5.30;;
7169;SDS011;3626;42.656;23.312;2023-08-20T00:37:34;8.15;;;5.30;;
7169;SDS011;3626;42.656;23.312;2023-08-20T00:37:40;8.45;;;5.22;;
7169;SDS011;3626;42.656;23.312;2023-08-20T00:37:46;8.55;;;5.22;;
7169;SDS011;3626;42.656;23.312;2023-08-20T00:37:51;8.60;;;5.20;;
7169;SDS011;3626;42.656;23.312;2023-08-20T00:37:57;8.77;;;5.18;;
7169;SDS011;3626;42.656;23.312;2023-08-20T00:38:03;9.23;;;5.20;;
7169;SDS011;3626;42.656;23.312;2023-08-20T00:38:09;9.40;;;5.20;;
7169;SDS011;3626;42.656;23.312;2023-08-20T00:38:15;8.93;;;5.10;;
7169;SDS011;3626;42.656;23.312;2023-08-20T00:38:21;8.63;;;5.00;;
7169;SDS011;3626;42.656;23.312;2023-08-20T00:38:27;8.90;;;5.10;;
7169;SDS011;3626;42.656;23.312;2023-08-20T00:38:32;8.68;;;5.10;;
7169;SDS011;3626;42.656;23.312;2023-08-20T00:38:38;8.73;;;5.18;;
7169;SDS011;3626;42.656;23.312;2023-08-20T00:38:43;8.73;;;5.20;;
7169;SDS011;3626;42.656;23.312;2023-08-20T00:38:49;9.27;;;5.20;;
7169;SDS011;3626;42.656;23.312;2023-08-20T00:38:55;8.85;;;5.20;;
7169;SDS011;3626;42.656;23.312;2023-08-20T00:39:00;8.87;;;5.20;;
7169;SDS011;3626;42.656;23.312;2023-08-20T00:39:06;8.70;;;5.22;;
7169;SDS011;3626;42.656;23.312;2023-08-20T00:39:12;8.75;;;5.25;;
7169;SDS011;3626;42.656;23.312;2023-08-20T00:39:18;8.90;;;5.30;;